sensor_id;sensor_type;location;lat;lon;timestamp;temperature;humidity
13231;DHT22;6681;53.254;10.398;2023-08-06T00:00:06;17.50;99.90
13231;DHT22;6681;53.254;10.398;2023-08-06T00:02:33;17.50;99.90
13231;DHT22;6681;53.254;10.398;2023-08-06T00:04:59;17.50;99.90
13231;DHT22;6681;53.254;10.398;2023-08-06T00:07:25;17.50;99.90
13231;DHT22;6681;53.254;10.398;2023-08-06T00:09:50;17.50;99.90
13231;DHT22;6681;53.254;10.398;2023-08-06T00:12:16;17.50;99.90
13231;DHT22;6681;53.254;10.398;2023-08-06T00:14:41;17.40;99.90
13231;DHT22;6681;53.254;10.398;2023-08-06T00:17:08;17.40;99.90
13231;DHT22;6681;53.254;10.398;2023-08-06T00:19:33;17.30;99.90
13231;DHT22;6681;53.254;10.398;2023-08-06T00:21:59;17.30;99.90
13231;DHT22;6681;53.254;10.398;2023-08-06T00:24:25;17.30;99.90
13231;DHT22;6681;53.254;10.398;2023-08-06T00:26:50;17.30;99.90
13231;DHT22;6681;53.254;10.398;2023-08-06T00:29:16;17.30;99.90
13231;DHT22;6681;53.254;10.398;2023-08-06T00:31:41;17.40;99.90
13231;DHT22;6681;53.254;10.398;2023-08-06T00:34:07;17.40;99.90
13231;DHT22;6681;53.254;10.398;2023-08-06T00:36:33;17.40;99.90
13231;DHT22;6681;53.254;10.398;2023-08-06T00:38:58;17.40;99.90
13231;DHT22;6681;53.254;10.398;2023-08-06T00:41:24;17.30;99.90
13231;DHT22;6681;53.254;10.398;2023-08-06T00:43:49;17.30;99.90
13231;DHT22;6681;53.254;10.398;2023-08-06T00:46:15;17.30;99.90
13231;DHT22;6681;53.254;10.398;2023-08-06T00:48:41;17.20;99.90
13231;DHT22;6681;53.254;10.398;2023-08-06T00:51:09;17.20;99.90
13231;DHT22;6681;53.254;10.398;2023-08-06T00:53:35;17.20;99.90
13231;DHT22;6681;53.254;10.398;2023-08-06T00:56:01;17.10;99.90
13231;DHT22;6681;53.254;10.398;2023-08-06T00:58:27;17.10;99.90
13231;DHT22;6681;53.254;10.398;2023-08-06T01:00:53;17.00;99.90
13231;DHT22;6681;53.254;10.398;2023-08-06T01:03:19;17.00;99.90
13231;DHT22;6681;53.254;10.398;2023-08-06T01:05:44;17.00;99.90
13231;DHT22;6681;53.254;10.398;2023-08-06T01:11:01;17.00;99.90
13231;DHT22;6681;53.254;10.398;2023-08-06T01:13:38;17.00;99.90
13231;DHT22;6681;53.254;10.398;2023-08-06T01:16:06;17.10;99.90
13231;DHT22;6681;53.254;10.398;2023-08-06T01:18:32;17.10;99.90
13231;DHT22;6681;53.254;10.398;2023-08-06T01:20:58;17.10;99.90
13231;DHT22;6681;53.254;10.398;2023-08-06T01:23:24;17.10;99.90
13231;DHT22;6681;53.254;10.398;2023-08-06T01:25:59;17.00;99.90
13231;DHT22;6681;53.254;10.398;2023-08-06T01:34:10;17.00;99.90
13231;DHT22;6681;53.254;10.398;2023-08-06T01:36:39;16.90;99.90
13231;DHT22;6681;53.254;10.398;2023-08-06T01:39:06;17.00;99.90
13231;DHT22;6681;53.254;10.398;2023-08-06T01:41:31;16.90;99.90
13231;DHT22;6681;53.254;10.398;2023-08-06T01:43:57;16.90;99.90
13231;DHT22;6681;53.254;10.398;2023-08-06T01:46:23;16.90;99.90
13231;DHT22;6681;53.254;10.398;2023-08-06T01:48:48;16.90;99.90
13231;DHT22;6681;53.254;10.398;2023-08-06T01:51:14;16.90;99.90
13231;DHT22;6681;53.254;10.398;2023-08-06T01:53:39;16.90;99.90
13231;DHT22;6681;53.254;10.398;2023-08-06T01:56:05;16.90;99.90
13231;DHT22;6681;53.254;10.398;2023-08-06T01:58:31;16.90;99.90
13231;DHT22;6681;53.254;10.398;2023-08-06T02:00:56;16.90;99.90
13231;DHT22;6681;53.254;10.398;2023-08-06T02:03:22;16.90;99.90
13231;DHT22;6681;53.254;10.398;2023-08-06T02:05:47;16.90;99.90
13231;DHT22;6681;53.254;10.398;2023-08-06T02:08:13;16.90;99.90
13231;DHT22;6681;53.254;10.398;2023-08-06T02:10:39;16.90;99.90
13231;DHT22;6681;53.254;10.398;2023-08-06T02:13:05;16.90;99.90
13231;DHT22;6681;53.254;10.398;2023-08-06T02:15:30;16.90;99.90
13231;DHT22;6681;53.254;10.398;2023-08-06T02:17:56;16.90;99.90
13231;DHT22;6681;53.254;10.398;2023-08-06T02:20:21;16.90;99.90
13231;DHT22;6681;53.254;10.398;2023-08-06T02:22:47;16.80;99.90
13231;DHT22;6681;53.254;10.398;2023-08-06T02:25:13;16.80;99.90
13231;DHT22;6681;53.254;10.398;2023-08-06T02:27:38;16.80;99.90
13231;DHT22;6681;53.254;10.398;2023-08-06T02:30:05;16.80;99.90
13231;DHT22;6681;53.254;10.398;2023-08-06T02:32:31;16.80;99.90
13231;DHT22;6681;53.254;10.398;2023-08-06T02:34:57;16.70;99.90
13231;DHT22;6681;53.254;10.398;2023-08-06T02:37:23;16.80;99.90
13231;DHT22;6681;53.254;10.398;2023-08-06T02:39:48;16.80;99.90
13231;DHT22;6681;53.254;10.398;2023-08-06T02:42:14;16.90;99.90
13231;DHT22;6681;53.254;10.398;2023-08-06T02:44:40;16.90;99.90
13231;DHT22;6681;53.254;10.398;2023-08-06T02:47:06;16.90;99.90
13231;DHT22;6681;53.254;10.398;2023-08-06T02:49:31;16.90;99.90
13231;DHT22;6681;53.254;10.398;2023-08-06T02:51:57;16.90;99.90
13231;DHT22;6681;53.254;10.398;2023-08-06T02:54:22;16.90;99.90
13231;DHT22;6681;53.254;10.398;2023-08-06T02:56:48;16.80;99.90
13231;DHT22;6681;53.254;10.398;2023-08-06T02:59:14;16.70;99.90
13231;DHT22;6681;53.254;10.398;2023-08-06T03:01:39;16.60;99.90
13231;DHT22;6681;53.254;10.398;2023-08-06T03:04:06;16.60;99.90
13231;DHT22;6681;53.254;10.398;2023-08-06T03:06:31;16.60;99.90
13231;DHT22;6681;53.254;10.398;2023-08-06T03:08:57;16.60;99.90
13231;DHT22;6681;53.254;10.398;2023-08-06T03:11:23;16.70;99.90
13231;DHT22;6681;53.254;10.398;2023-08-06T03:13:48;16.60;99.90
13231;DHT22;6681;53.254;10.398;2023-08-06T03:16:14;16.60;99.90
13231;DHT22;6681;53.254;10.398;2023-08-06T03:18:40;16.60;99.90
13231;DHT22;6681;53.254;10.398;2023-08-06T03:21:05;18.20;99.90
13231;DHT22;6681;53.254;10.398;2023-08-06T03:23:31;16.50;99.90
13231;DHT22;6681;53.254;10.398;2023-08-06T03:26:01;16.70;99.90
13231;DHT22;6681;53.254;10.398;2023-08-06T03:28:27;16.70;99.90
13231;DHT22;6681;53.254;10.398;2023-08-06T03:31:00;16.70;99.90
13231;DHT22;6681;53.254;10.398;2023-08-06T03:33:26;16.70;99.90
13231;DHT22;6681;53.254;10.398;2023-08-06T03:35:52;16.60;99.90
13231;DHT22;6681;53.254;10.398;2023-08-06T03:38:17;16.60;99.90
13231;DHT22;6681;53.254;10.398;2023-08-06T03:40:43;16.60;99.90
13231;DHT22;6681;53.254;10.398;2023-08-06T03:43:09;16.60;99.90
13231;DHT22;6681;53.254;10.398;2023-08-06T03:45:34;16.60;99.90
13231;DHT22;6681;53.254;10.398;2023-08-06T03:48:00;16.60;99.90
13231;DHT22;6681;53.254;10.398;2023-08-06T03:50:25;16.60;99.90
13231;DHT22;6681;53.254;10.398;2023-08-06T03:52:51;16.50;99.90
13231;DHT22;6681;53.254;10.398;2023-08-06T03:55:17;16.50;99.90
13231;DHT22;6681;53.254;10.398;2023-08-06T03:57:42;16.50;99.90
13231;DHT22;6681;53.254;10.398;2023-08-06T04:00:08;15.40;99.90
13231;DHT22;6681;53.254;10.398;2023-08-06T04:02:34;16.50;99.90
13231;DHT22;6681;53.254;10.398;2023-08-06T04:05:00;16.40;99.90
13231;DHT22;6681;53.254;10.398;2023-08-06T04:07:26;16.40;99.90
13231;DHT22;6681;53.254;10.398;2023-08-06T04:09:57;16.30;99.90
13231;DHT22;6681;53.254;10.398;2023-08-06T04:12:24;16.40;99.90
13231;DHT22;6681;53.254;10.398;2023-08-06T04:14:51;16.30;99.90
13231;DHT22;6681;53.254;10.398;2023-08-06T04:17:18;16.40;99.90
13231;DHT22;6681;53.254;10.398;2023-08-06T04:19:51;16.30;99.90
13231;DHT22;6681;53.254;10.398;2023-08-06T04:22:17;16.30;99.90
13231;DHT22;6681;53.254;10.398;2023-08-06T04:24:43;16.30;99.90
13231;DHT22;6681;53.254;10.398;2023-08-06T04:27:10;16.30;99.90
13231;DHT22;6681;53.254;10.398;2023-08-06T04:29:36;16.30;99.90
13231;DHT22;6681;53.254;10.398;2023-08-06T04:32:03;16.30;99.90
13231;DHT22;6681;53.254;10.398;2023-08-06T04:34:29;16.30;99.90
13231;DHT22;6681;53.254;10.398;2023-08-06T04:36:55;16.30;99.90
13231;DHT22;6681;53.254;10.398;2023-08-06T04:39:20;16.30;99.90
13231;DHT22;6681;53.254;10.398;2023-08-06T04:41:46;16.30;99.90
13231;DHT22;6681;53.254;10.398;2023-08-06T04:44:12;16.30;99.90
13231;DHT22;6681;53.254;10.398;2023-08-06T04:46:37;16.40;99.90
13231;DHT22;6681;53.254;10.398;2023-08-06T04:49:03;16.40;99.90
13231;DHT22;6681;53.254;10.398;2023-08-06T04:51:28;16.40;99.90
13231;DHT22;6681;53.254;10.398;2023-08-06T04:53:54;16.40;99.90
13231;DHT22;6681;53.254;10.398;2023-08-06T04:56:20;16.40;99.90
13231;DHT22;6681;53.254;10.398;2023-08-06T04:58:45;16.40;99.90
13231;DHT22;6681;53.254;10.398;2023-08-06T05:01:11;16.40;99.90
13231;DHT22;6681;53.254;10.398;2023-08-06T05:03:36;16.30;99.90
13231;DHT22;6681;53.254;10.398;2023-08-06T05:06:02;16.40;99.90
13231;DHT22;6681;53.254;10.398;2023-08-06T05:08:28;16.30;99.90
13231;DHT22;6681;53.254;10.398;2023-08-06T05:10:53;16.30;99.90
13231;DHT22;6681;53.254;10.398;2023-08-06T05:13:19;16.40;99.90
13231;DHT22;6681;53.254;10.398;2023-08-06T05:15:44;16.40;99.90
13231;DHT22;6681;53.254;10.398;2023-08-06T05:18:12;16.40;99.90
13231;DHT22;6681;53.254;10.398;2023-08-06T05:20:39;16.50;99.90
13231;DHT22;6681;53.254;10.398;2023-08-06T05:23:05;16.50;99.90
13231;DHT22;6681;53.254;10.398;2023-08-06T05:25:30;16.40;99.90
13231;DHT22;6681;53.254;10.398;2023-08-06T05:27:56;16.40;99.90
13231;DHT22;6681;53.254;10.398;2023-08-06T05:30:22;16.30;99.90
13231;DHT22;6681;53.254;10.398;2023-08-06T05:32:47;16.30;99.90
13231;DHT22;6681;53.254;10.398;2023-08-06T05:35:22;16.30;99.90
13231;DHT22;6681;53.254;10.398;2023-08-06T05:37:48;16.30;99.90
13231;DHT22;6681;53.254;10.398;2023-08-06T05:40:14;16.40;99.90
13231;DHT22;6681;53.254;10.398;2023-08-06T05:42:40;16.40;99.90
13231;DHT22;6681;53.254;10.398;2023-08-06T05:45:06;16.40;99.90
13231;DHT22;6681;53.254;10.398;2023-08-06T05:47:32;16.40;99.90
13231;DHT22;6681;53.254;10.398;2023-08-06T05:49:58;16.40;99.90
13231;DHT22;6681;53.254;10.398;2023-08-06T05:52:23;16.30;99.90
13231;DHT22;6681;53.254;10.398;2023-08-06T05:54:49;16.40;99.90
13231;DHT22;6681;53.254;10.398;2023-08-06T05:57:15;16.40;99.90
13231;DHT22;6681;53.254;10.398;2023-08-06T05:59:41;16.50;99.90
13231;DHT22;6681;53.254;10.398;2023-08-06T06:02:07;16.40;99.90
13231;DHT22;6681;53.254;10.398;2023-08-06T06:04:32;16.40;99.90
13231;DHT22;6681;53.254;10.398;2023-08-06T06:06:58;16.50;99.90
13231;DHT22;6681;53.254;10.398;2023-08-06T06:09:24;16.50;99.90
13231;DHT22;6681;53.254;10.398;2023-08-06T06:11:49;16.50;99.90
13231;DHT22;6681;53.254;10.398;2023-08-06T06:14:17;16.50;99.90
13231;DHT22;6681;53.254;10.398;2023-08-06T06:16:42;16.40;99.90
13231;DHT22;6681;53.254;10.398;2023-08-06T06:19:08;16.50;99.90
13231;DHT22;6681;53.254;10.398;2023-08-06T06:21:34;16.60;99.90
13231;DHT22;6681;53.254;10.398;2023-08-06T06:23:59;16.60;99.90
13231;DHT22;6681;53.254;10.398;2023-08-06T06:26:25;16.60;99.90
13231;DHT22;6681;53.254;10.398;2023-08-06T06:28:51;16.60;99.90
13231;DHT22;6681;53.254;10.398;2023-08-06T06:31:16;16.60;99.90
13231;DHT22;6681;53.254;10.398;2023-08-06T06:33:42;16.60;99.90
13231;DHT22;6681;53.254;10.398;2023-08-06T06:36:07;16.60;99.90
13231;DHT22;6681;53.254;10.398;2023-08-06T06:38:34;16.60;99.90
13231;DHT22;6681;53.254;10.398;2023-08-06T06:41:00;16.60;99.90
13231;DHT22;6681;53.254;10.398;2023-08-06T06:43:26;16.60;99.90
13231;DHT22;6681;53.254;10.398;2023-08-06T06:46:00;16.70;99.90
13231;DHT22;6681;53.254;10.398;2023-08-06T06:48:27;16.80;99.90
13231;DHT22;6681;53.254;10.398;2023-08-06T06:50:54;16.70;99.90
13231;DHT22;6681;53.254;10.398;2023-08-06T06:53:20;16.70;99.90
13231;DHT22;6681;53.254;10.398;2023-08-06T06:55:46;16.70;99.90
13231;DHT22;6681;53.254;10.398;2023-08-06T06:58:15;16.70;99.90
13231;DHT22;6681;53.254;10.398;2023-08-06T07:00:41;16.70;99.90
13231;DHT22;6681;53.254;10.398;2023-08-06T07:03:07;16.70;99.90
13231;DHT22;6681;53.254;10.398;2023-08-06T07:05:32;16.70;99.90
13231;DHT22;6681;53.254;10.398;2023-08-06T07:07:58;16.70;99.90
13231;DHT22;6681;53.254;10.398;2023-08-06T07:10:24;16.70;99.90
13231;DHT22;6681;53.254;10.398;2023-08-06T07:12:49;16.70;99.90
13231;DHT22;6681;53.254;10.398;2023-08-06T07:15:15;16.70;99.90
13231;DHT22;6681;53.254;10.398;2023-08-06T07:17:43;17.20;99.90
13231;DHT22;6681;53.254;10.398;2023-08-06T07:20:09;16.80;99.90
13231;DHT22;6681;53.254;10.398;2023-08-06T07:22:34;16.70;99.90
13231;DHT22;6681;53.254;10.398;2023-08-06T07:25:01;16.80;99.90
13231;DHT22;6681;53.254;10.398;2023-08-06T07:27:26;16.80;99.90
13231;DHT22;6681;53.254;10.398;2023-08-06T07:29:52;16.80;99.90
13231;DHT22;6681;53.254;10.398;2023-08-06T07:32:18;16.90;99.90
13231;DHT22;6681;53.254;10.398;2023-08-06T07:34:43;16.90;99.90
13231;DHT22;6681;53.254;10.398;2023-08-06T07:37:09;16.90;99.90
13231;DHT22;6681;53.254;10.398;2023-08-06T07:39:35;17.00;99.90
13231;DHT22;6681;53.254;10.398;2023-08-06T07:42:00;17.00;99.90
13231;DHT22;6681;53.254;10.398;2023-08-06T07:44:27;16.90;99.90
13231;DHT22;6681;53.254;10.398;2023-08-06T07:46:53;16.90;99.90
13231;DHT22;6681;53.254;10.398;2023-08-06T07:49:19;16.90;99.90
13231;DHT22;6681;53.254;10.398;2023-08-06T07:51:44;16.90;99.90
13231;DHT22;6681;53.254;10.398;2023-08-06T07:54:10;16.90;99.90
13231;DHT22;6681;53.254;10.398;2023-08-06T07:56:35;17.00;99.90
13231;DHT22;6681;53.254;10.398;2023-08-06T07:59:02;16.90;99.90
13231;DHT22;6681;53.254;10.398;2023-08-06T08:01:27;16.90;99.90
13231;DHT22;6681;53.254;10.398;2023-08-06T08:03:53;16.80;99.90
13231;DHT22;6681;53.254;10.398;2023-08-06T08:06:19;16.80;99.90
13231;DHT22;6681;53.254;10.398;2023-08-06T08:08:44;16.80;99.90
13231;DHT22;6681;53.254;10.398;2023-08-06T08:11:10;16.80;99.90
13231;DHT22;6681;53.254;10.398;2023-08-06T08:13:36;16.80;99.90
13231;DHT22;6681;53.254;10.398;2023-08-06T08:16:01;16.80;99.90
13231;DHT22;6681;53.254;10.398;2023-08-06T08:18:27;16.80;99.90
13231;DHT22;6681;53.254;10.398;2023-08-06T08:20:53;16.90;99.90
13231;DHT22;6681;53.254;10.398;2023-08-06T08:23:19;16.80;99.90
13231;DHT22;6681;53.254;10.398;2023-08-06T08:25:44;16.80;99.90
13231;DHT22;6681;53.254;10.398;2023-08-06T08:28:10;16.80;99.90
13231;DHT22;6681;53.254;10.398;2023-08-06T08:30:36;16.80;99.90
13231;DHT22;6681;53.254;10.398;2023-08-06T08:33:01;16.90;99.90
13231;DHT22;6681;53.254;10.398;2023-08-06T08:35:27;16.90;99.90
13231;DHT22;6681;53.254;10.398;2023-08-06T08:37:52;16.90;99.90
13231;DHT22;6681;53.254;10.398;2023-08-06T08:40:21;16.90;99.90
13231;DHT22;6681;53.254;10.398;2023-08-06T08:42:48;17.00;13.40
13231;DHT22;6681;53.254;10.398;2023-08-06T08:45:14;16.90;12.50
13231;DHT22;6681;53.254;10.398;2023-08-06T08:47:41;16.90;12.60
13231;DHT22;6681;53.254;10.398;2023-08-06T08:50:08;17.00;13.70
13231;DHT22;6681;53.254;10.398;2023-08-06T08:52:36;16.90;13.80
13231;DHT22;6681;53.254;10.398;2023-08-06T08:55:03;17.00;14.10
13231;DHT22;6681;53.254;10.398;2023-08-06T08:57:29;17.00;11.70
13231;DHT22;6681;53.254;10.398;2023-08-06T08:59:55;17.00;12.30
13231;DHT22;6681;53.254;10.398;2023-08-06T09:02:21;17.00;14.60
13231;DHT22;6681;53.254;10.398;2023-08-06T09:04:48;17.10;11.50
13231;DHT22;6681;53.254;10.398;2023-08-06T09:07:18;17.10;8.60
13231;DHT22;6681;53.254;10.398;2023-08-06T09:09:48;17.10;9.30
13231;DHT22;6681;53.254;10.398;2023-08-06T09:12:15;17.10;8.70
13231;DHT22;6681;53.254;10.398;2023-08-06T09:14:41;17.10;11.80
13231;DHT22;6681;53.254;10.398;2023-08-06T09:17:07;17.10;10.50
13231;DHT22;6681;53.254;10.398;2023-08-06T09:19:34;17.10;10.40
13231;DHT22;6681;53.254;10.398;2023-08-06T09:22:00;17.20;15.40
13231;DHT22;6681;53.254;10.398;2023-08-06T09:24:25;17.20;11.20
13231;DHT22;6681;53.254;10.398;2023-08-06T09:26:52;17.20;9.90
13231;DHT22;6681;53.254;10.398;2023-08-06T09:29:18;17.30;13.10
13231;DHT22;6681;53.254;10.398;2023-08-06T09:31:47;17.40;10.30
13231;DHT22;6681;53.254;10.398;2023-08-06T09:34:17;17.40;9.80
13231;DHT22;6681;53.254;10.398;2023-08-06T09:36:50;17.40;7.90
13231;DHT22;6681;53.254;10.398;2023-08-06T09:39:17;17.40;5.30
13231;DHT22;6681;53.254;10.398;2023-08-06T09:41:44;17.40;5.00
13231;DHT22;6681;53.254;10.398;2023-08-06T09:44:17;17.40;7.70
13231;DHT22;6681;53.254;10.398;2023-08-06T09:46:53;17.50;8.40
13231;DHT22;6681;53.254;10.398;2023-08-06T09:49:24;17.50;8.50
13231;DHT22;6681;53.254;10.398;2023-08-06T09:51:54;17.60;6.10
13231;DHT22;6681;53.254;10.398;2023-08-06T09:54:24;17.60;7.70
13231;DHT22;6681;53.254;10.398;2023-08-06T09:56:52;17.60;7.30
13231;DHT22;6681;53.254;10.398;2023-08-06T09:59:18;17.60;9.00
13231;DHT22;6681;53.254;10.398;2023-08-06T10:01:45;17.60;6.10
13231;DHT22;6681;53.254;10.398;2023-08-06T10:04:14;17.60;8.50
13231;DHT22;6681;53.254;10.398;2023-08-06T10:06:42;17.60;9.50
13231;DHT22;6681;53.254;10.398;2023-08-06T10:09:08;17.70;6.10
13231;DHT22;6681;53.254;10.398;2023-08-06T10:11:36;17.70;11.00
13231;DHT22;6681;53.254;10.398;2023-08-06T10:14:07;17.70;12.10
13231;DHT22;6681;53.254;10.398;2023-08-06T10:16:34;17.70;8.00
13231;DHT22;6681;53.254;10.398;2023-08-06T10:19:01;17.80;9.00
13231;DHT22;6681;53.254;10.398;2023-08-06T10:21:28;17.80;5.50
13231;DHT22;6681;53.254;10.398;2023-08-06T10:23:56;17.80;9.50
13231;DHT22;6681;53.254;10.398;2023-08-06T10:26:28;17.80;6.70
13231;DHT22;6681;53.254;10.398;2023-08-06T10:28:54;17.90;9.30
13231;DHT22;6681;53.254;10.398;2023-08-06T10:31:51;17.90;2.80
13231;DHT22;6681;53.254;10.398;2023-08-06T10:34:06;18.00;1.00
13231;DHT22;6681;53.254;10.398;2023-08-06T10:36:32;18.00;7.20
13231;DHT22;6681;53.254;10.398;2023-08-06T10:38:58;18.00;6.90
13231;DHT22;6681;53.254;10.398;2023-08-06T10:41:28;18.00;1.60
13231;DHT22;6681;53.254;10.398;2023-08-06T10:44:07;17.90;4.30
13231;DHT22;6681;53.254;10.398;2023-08-06T10:46:34;17.90;7.10
13231;DHT22;6681;53.254;10.398;2023-08-06T10:48:59;17.90;3.90
13231;DHT22;6681;53.254;10.398;2023-08-06T10:51:25;17.90;1.00
13231;DHT22;6681;53.254;10.398;2023-08-06T10:53:51;18.00;1.00
13231;DHT22;6681;53.254;10.398;2023-08-06T10:56:18;18.20;4.20
13231;DHT22;6681;53.254;10.398;2023-08-06T10:58:45;18.30;1.00
13231;DHT22;6681;53.254;10.398;2023-08-06T11:01:11;18.40;1.70
13231;DHT22;6681;53.254;10.398;2023-08-06T11:03:38;18.50;1.00
13231;DHT22;6681;53.254;10.398;2023-08-06T11:06:04;18.60;1.00
13231;DHT22;6681;53.254;10.398;2023-08-06T11:08:35;18.70;1.00
13231;DHT22;6681;53.254;10.398;2023-08-06T11:11:15;18.70;1.00
13231;DHT22;6681;53.254;10.398;2023-08-06T11:13:48;18.80;1.00
13231;DHT22;6681;53.254;10.398;2023-08-06T11:16:18;18.90;1.00
13231;DHT22;6681;53.254;10.398;2023-08-06T11:18:44;18.90;1.00
13231;DHT22;6681;53.254;10.398;2023-08-06T11:21:11;18.90;1.00
13231;DHT22;6681;53.254;10.398;2023-08-06T11:23:37;20.20;1.00
13231;DHT22;6681;53.254;10.398;2023-08-06T11:26:04;18.90;1.00
13231;DHT22;6681;53.254;10.398;2023-08-06T11:28:30;18.90;1.00
13231;DHT22;6681;53.254;10.398;2023-08-06T11:30:55;18.80;1.00
13231;DHT22;6681;53.254;10.398;2023-08-06T11:33:23;18.80;1.00
13231;DHT22;6681;53.254;10.398;2023-08-06T11:35:51;18.80;1.00
13231;DHT22;6681;53.254;10.398;2023-08-06T11:38:17;18.90;1.00
13231;DHT22;6681;53.254;10.398;2023-08-06T11:40:44;18.90;1.00
13231;DHT22;6681;53.254;10.398;2023-08-06T11:43:14;19.00;1.00
13231;DHT22;6681;53.254;10.398;2023-08-06T11:45:40;19.00;1.00
13231;DHT22;6681;53.254;10.398;2023-08-06T11:48:07;19.10;1.00
13231;DHT22;6681;53.254;10.398;2023-08-06T11:50:37;19.10;1.00
13231;DHT22;6681;53.254;10.398;2023-08-06T11:53:04;19.10;1.00
13231;DHT22;6681;53.254;10.398;2023-08-06T11:55:30;19.20;1.00
13231;DHT22;6681;53.254;10.398;2023-08-06T11:57:56;19.10;1.00
13231;DHT22;6681;53.254;10.398;2023-08-06T12:00:26;19.10;1.00
13231;DHT22;6681;53.254;10.398;2023-08-06T12:02:52;19.10;1.00
13231;DHT22;6681;53.254;10.398;2023-08-06T12:05:19;19.10;1.00
13231;DHT22;6681;53.254;10.398;2023-08-06T12:07:54;19.10;1.00
13231;DHT22;6681;53.254;10.398;2023-08-06T12:10:22;19.10;1.00
13231;DHT22;6681;53.254;10.398;2023-08-06T12:12:49;19.10;1.00
13231;DHT22;6681;53.254;10.398;2023-08-06T12:15:15;19.20;1.00
13231;DHT22;6681;53.254;10.398;2023-08-06T12:17:41;19.20;1.00
13231;DHT22;6681;53.254;10.398;2023-08-06T12:20:08;19.30;1.00
13231;DHT22;6681;53.254;10.398;2023-08-06T12:22:34;19.30;1.00
13231;DHT22;6681;53.254;10.398;2023-08-06T12:25:04;19.30;1.00
13231;DHT22;6681;53.254;10.398;2023-08-06T12:27:43;19.40;1.00
13231;DHT22;6681;53.254;10.398;2023-08-06T12:30:10;19.40;1.00
13231;DHT22;6681;53.254;10.398;2023-08-06T12:32:36;19.50;1.00
13231;DHT22;6681;53.254;10.398;2023-08-06T12:35:02;19.50;1.00
13231;DHT22;6681;53.254;10.398;2023-08-06T12:37:29;19.50;1.00
13231;DHT22;6681;53.254;10.398;2023-08-06T12:39:54;19.60;1.00
13231;DHT22;6681;53.254;10.398;2023-08-06T12:42:20;19.60;1.00
13231;DHT22;6681;53.254;10.398;2023-08-06T12:44:47;19.60;1.00
13231;DHT22;6681;53.254;10.398;2023-08-06T12:47:13;19.70;1.00
13231;DHT22;6681;53.254;10.398;2023-08-06T12:49:39;19.70;1.00
13231;DHT22;6681;53.254;10.398;2023-08-06T12:52:05;19.70;1.00
13231;DHT22;6681;53.254;10.398;2023-08-06T12:54:32;19.80;1.00
13231;DHT22;6681;53.254;10.398;2023-08-06T12:57:02;19.80;1.00
13231;DHT22;6681;53.254;10.398;2023-08-06T12:59:28;19.90;1.00
13231;DHT22;6681;53.254;10.398;2023-08-06T13:01:53;19.90;1.00
13231;DHT22;6681;53.254;10.398;2023-08-06T13:04:19;20.00;1.00
13231;DHT22;6681;53.254;10.398;2023-08-06T13:06:47;20.00;1.00
13231;DHT22;6681;53.254;10.398;2023-08-06T13:09:15;20.00;1.00
13231;DHT22;6681;53.254;10.398;2023-08-06T13:11:41;20.00;1.00
13231;DHT22;6681;53.254;10.398;2023-08-06T13:14:11;20.00;1.00
13231;DHT22;6681;53.254;10.398;2023-08-06T13:16:39;20.00;1.00
13231;DHT22;6681;53.254;10.398;2023-08-06T13:19:06;20.00;1.00
13231;DHT22;6681;53.254;10.398;2023-08-06T13:21:59;20.00;1.00
13231;DHT22;6681;53.254;10.398;2023-08-06T13:24:26;20.10;1.00
13231;DHT22;6681;53.254;10.398;2023-08-06T13:26:52;20.10;1.00
13231;DHT22;6681;53.254;10.398;2023-08-06T13:29:18;20.10;1.00
13231;DHT22;6681;53.254;10.398;2023-08-06T13:31:44;20.10;1.00
13231;DHT22;6681;53.254;10.398;2023-08-06T13:34:09;20.10;1.00
13231;DHT22;6681;53.254;10.398;2023-08-06T13:36:35;20.10;1.00
13231;DHT22;6681;53.254;10.398;2023-08-06T13:39:00;20.10;1.00
13231;DHT22;6681;53.254;10.398;2023-08-06T13:41:26;20.00;1.00
13231;DHT22;6681;53.254;10.398;2023-08-06T13:43:52;19.90;1.00
13231;DHT22;6681;53.254;10.398;2023-08-06T13:46:18;19.90;1.00
13231;DHT22;6681;53.254;10.398;2023-08-06T13:48:46;19.90;1.00
13231;DHT22;6681;53.254;10.398;2023-08-06T13:51:13;19.90;1.00
13231;DHT22;6681;53.254;10.398;2023-08-06T13:53:39;19.90;1.00
13231;DHT22;6681;53.254;10.398;2023-08-06T13:56:06;19.80;1.00
13231;DHT22;6681;53.254;10.398;2023-08-06T13:58:32;19.80;1.00
13231;DHT22;6681;53.254;10.398;2023-08-06T14:00:57;19.90;1.00
13231;DHT22;6681;53.254;10.398;2023-08-06T14:03:23;19.80;1.00
13231;DHT22;6681;53.254;10.398;2023-08-06T14:05:49;19.90;1.00
13231;DHT22;6681;53.254;10.398;2023-08-06T14:08:15;19.90;1.00
13231;DHT22;6681;53.254;10.398;2023-08-06T14:10:43;19.90;1.00
13231;DHT22;6681;53.254;10.398;2023-08-06T14:13:09;20.00;1.00
13231;DHT22;6681;53.254;10.398;2023-08-06T14:15:35;20.10;1.00
13231;DHT22;6681;53.254;10.398;2023-08-06T14:18:01;20.00;1.00
13231;DHT22;6681;53.254;10.398;2023-08-06T14:20:28;20.10;1.00
13231;DHT22;6681;53.254;10.398;2023-08-06T14:22:53;20.10;1.00
13231;DHT22;6681;53.254;10.398;2023-08-06T14:25:19;20.10;1.00
13231;DHT22;6681;53.254;10.398;2023-08-06T14:27:44;20.10;1.00
13231;DHT22;6681;53.254;10.398;2023-08-06T14:30:10;20.20;1.00
13231;DHT22;6681;53.254;10.398;2023-08-06T14:32:36;20.20;1.00
13231;DHT22;6681;53.254;10.398;2023-08-06T14:35:02;20.20;1.00
13231;DHT22;6681;53.254;10.398;2023-08-06T14:37:27;20.30;1.00
13231;DHT22;6681;53.254;10.398;2023-08-06T14:39:53;20.30;1.00
13231;DHT22;6681;53.254;10.398;2023-08-06T14:42:19;20.30;1.00
13231;DHT22;6681;53.254;10.398;2023-08-06T14:44:44;20.30;1.00
13231;DHT22;6681;53.254;10.398;2023-08-06T14:47:10;20.30;1.00
13231;DHT22;6681;53.254;10.398;2023-08-06T14:49:36;20.30;1.00
13231;DHT22;6681;53.254;10.398;2023-08-06T14:52:03;20.30;1.00
13231;DHT22;6681;53.254;10.398;2023-08-06T14:54:29;20.30;1.00
13231;DHT22;6681;53.254;10.398;2023-08-06T14:56:54;20.40;1.00
13231;DHT22;6681;53.254;10.398;2023-08-06T14:59:20;20.40;1.00
13231;DHT22;6681;53.254;10.398;2023-08-06T15:01:45;20.40;1.00
13231;DHT22;6681;53.254;10.398;2023-08-06T15:04:11;20.40;1.00
13231;DHT22;6681;53.254;10.398;2023-08-06T15:06:37;20.30;1.00
13231;DHT22;6681;53.254;10.398;2023-08-06T15:09:02;20.20;1.00
13231;DHT22;6681;53.254;10.398;2023-08-06T15:11:28;20.20;1.00
13231;DHT22;6681;53.254;10.398;2023-08-06T15:13:53;20.20;1.00
13231;DHT22;6681;53.254;10.398;2023-08-06T15:16:19;20.20;1.00
13231;DHT22;6681;53.254;10.398;2023-08-06T15:18:45;20.20;1.00
13231;DHT22;6681;53.254;10.398;2023-08-06T15:21:11;20.30;1.00
13231;DHT22;6681;53.254;10.398;2023-08-06T15:23:37;20.20;1.00
13231;DHT22;6681;53.254;10.398;2023-08-06T15:26:02;20.10;1.00
13231;DHT22;6681;53.254;10.398;2023-08-06T15:28:28;20.10;1.00
13231;DHT22;6681;53.254;10.398;2023-08-06T15:30:55;20.10;1.00
13231;DHT22;6681;53.254;10.398;2023-08-06T15:33:20;20.00;1.00
13231;DHT22;6681;53.254;10.398;2023-08-06T15:35:46;20.00;1.00
13231;DHT22;6681;53.254;10.398;2023-08-06T15:38:12;20.00;1.00
13231;DHT22;6681;53.254;10.398;2023-08-06T15:40:38;19.90;1.00